sensor_id;sensor_type;location;lat;lon;timestamp;P1;durP1;ratioP1;P2;durP2;ratioP2
31270;SDS011;17904;47.420;9.310;2022-11-20T00:01:19;5.70;;;4.97;;
31270;SDS011;17904;47.420;9.310;2022-11-20T00:03:47;8.13;;;5.45;;
31270;SDS011;17904;47.420;9.310;2022-11-20T00:08:42;5.45;;;4.45;;
31270;SDS011;17904;47.420;9.310;2022-11-20T00:13:45;8.88;;;4.93;;
31270;SDS011;17904;47.420;9.310;2022-11-20T00:16:13;6.07;;;5.10;;
31270;SDS011;17904;47.420;9.310;2022-11-20T00:18:41;8.27;;;5.05;;
31270;SDS011;17904;47.420;9.310;2022-11-20T00:23:39;6.85;;;5.13;;
31270;SDS011;17904;47.420;9.310;2022-11-20T00:26:08;9.85;;;5.05;;
31270;SDS011;17904;47.420;9.310;2022-11-20T00:28:36;11.02;;;5.45;;
31270;SDS011;17904;47.420;9.310;2022-11-20T00:33:32;10.00;;;4.40;;
31270;SDS011;17904;47.420;9.310;2022-11-20T00:36:02;7.43;;;4.60;;
31270;SDS011;17904;47.420;9.310;2022-11-20T00:38:31;6.28;;;4.35;;
31270;SDS011;17904;47.420;9.310;2022-11-20T00:41:02;5.47;;;4.63;;
31270;SDS011;17904;47.420;9.310;2022-11-20T00:43:31;5.45;;;4.22;;
31270;SDS011;17904;47.420;9.310;2022-11-20T00:48:24;5.68;;;4.07;;
31270;SDS011;17904;47.420;9.310;2022-11-20T00:50:52;5.25;;;4.60;;
31270;SDS011;17904;47.420;9.310;2022-11-20T00:53:19;4.10;;;3.67;;
31270;SDS011;17904;47.420;9.310;2022-11-20T00:55:53;4.60;;;3.88;;
31270;SDS011;17904;47.420;9.310;2022-11-20T00:58:21;4.85;;;3.67;;
31270;SDS011;17904;47.420;9.310;2022-11-20T01:00:49;8.02;;;4.00;;
31270;SDS011;17904;47.420;9.310;2022-11-20T01:03:16;6.50;;;3.97;;
31270;SDS011;17904;47.420;9.310;2022-11-20T01:05:51;5.10;;;4.00;;
31270;SDS011;17904;47.420;9.310;2022-11-20T01:08:18;6.38;;;4.43;;
31270;SDS011;17904;47.420;9.310;2022-11-20T01:13:11;8.30;;;5.43;;
31270;SDS011;17904;47.420;9.310;2022-11-20T01:16:01;5.50;;;4.68;;
31270;SDS011;17904;47.420;9.310;2022-11-20T01:18:31;7.65;;;5.00;;
31270;SDS011;17904;47.420;9.310;2022-11-20T01:21:05;7.70;;;5.28;;
31270;SDS011;17904;47.420;9.310;2022-11-20T01:23:53;10.10;;;5.25;;
31270;SDS011;17904;47.420;9.310;2022-11-20T01:26:21;9.63;;;5.18;;
31270;SDS011;17904;47.420;9.310;2022-11-20T01:28:50;9.50;;;4.75;;
31270;SDS011;17904;47.420;9.310;2022-11-20T01:31:20;6.35;;;5.28;;
31270;SDS011;17904;47.420;9.310;2022-11-20T01:33:50;6.43;;;4.68;;
31270;SDS011;17904;47.420;9.310;2022-11-20T01:36:19;7.50;;;5.40;;
31270;SDS011;17904;47.420;9.310;2022-11-20T01:38:47;8.23;;;5.25;;
31270;SDS011;17904;47.420;9.310;2022-11-20T01:41:16;5.88;;;4.45;;
31270;SDS011;17904;47.420;9.310;2022-11-20T01:44:02;5.32;;;4.28;;
31270;SDS011;17904;47.420;9.310;2022-11-20T01:46:31;5.07;;;3.97;;
31270;SDS011;17904;47.420;9.310;2022-11-20T01:49:01;6.72;;;4.47;;
31270;SDS011;17904;47.420;9.310;2022-11-20T01:51:42;8.23;;;5.55;;
31270;SDS011;17904;47.420;9.310;2022-11-20T01:54:16;11.60;;;5.28;;
31270;SDS011;17904;47.420;9.310;2022-11-20T01:56:45;8.77;;;5.55;;
31270;SDS011;17904;47.420;9.310;2022-11-20T01:59:16;8.73;;;4.35;;
31270;SDS011;17904;47.420;9.310;2022-11-20T02:01:45;8.30;;;5.28;;
31270;SDS011;17904;47.420;9.310;2022-11-20T02:04:12;10.52;;;5.22;;
31270;SDS011;17904;47.420;9.310;2022-11-20T02:06:51;4.50;;;4.05;;
31270;SDS011;17904;47.420;9.310;2022-11-20T02:09:25;6.47;;;5.40;;
31270;SDS011;17904;47.420;9.310;2022-11-20T02:11:52;7.80;;;4.72;;
31270;SDS011;17904;47.420;9.310;2022-11-20T02:14:19;11.77;;;5.68;;
31270;SDS011;17904;47.420;9.310;2022-11-20T02:16:48;6.55;;;4.85;;
31270;SDS011;17904;47.420;9.310;2022-11-20T02:19:29;5.60;;;4.88;;
31270;SDS011;17904;47.420;9.310;2022-11-20T02:24:52;6.40;;;4.65;;
31270;SDS011;17904;47.420;9.310;2022-11-20T02:32:22;10.73;;;5.82;;
31270;SDS011;17904;47.420;9.310;2022-11-20T02:34:51;8.18;;;5.30;;
31270;SDS011;17904;47.420;9.310;2022-11-20T02:37:18;8.95;;;5.22;;
31270;SDS011;17904;47.420;9.310;2022-11-20T02:39:46;7.28;;;5.65;;
31270;SDS011;17904;47.420;9.310;2022-11-20T02:42:15;8.82;;;5.47;;
31270;SDS011;17904;47.420;9.310;2022-11-20T02:44:43;7.63;;;4.95;;
31270;SDS011;17904;47.420;9.310;2022-11-20T02:47:09;7.30;;;5.30;;
31270;SDS011;17904;47.420;9.310;2022-11-20T02:49:36;6.18;;;4.80;;
31270;SDS011;17904;47.420;9.310;2022-11-20T02:54:30;9.77;;;5.78;;
31270;SDS011;17904;47.420;9.310;2022-11-20T02:56:57;7.70;;;4.75;;
31270;SDS011;17904;47.420;9.310;2022-11-20T02:59:23;7.35;;;5.53;;
31270;SDS011;17904;47.420;9.310;2022-11-20T03:01:50;6.25;;;4.93;;
31270;SDS011;17904;47.420;9.310;2022-11-20T03:06:43;6.35;;;5.00;;
31270;SDS011;17904;47.420;9.310;2022-11-20T03:09:10;8.43;;;6.50;;
31270;SDS011;17904;47.420;9.310;2022-11-20T03:11:37;5.53;;;4.80;;
31270;SDS011;17904;47.420;9.310;2022-11-20T03:16:31;8.73;;;5.55;;
31270;SDS011;17904;47.420;9.310;2022-11-20T03:18:58;10.38;;;5.82;;
31270;SDS011;17904;47.420;9.310;2022-11-20T03:21:25;6.60;;;4.85;;
31270;SDS011;17904;47.420;9.310;2022-11-20T03:23:53;8.82;;;5.43;;
31270;SDS011;17904;47.420;9.310;2022-11-20T03:26:21;6.03;;;5.00;;
31270;SDS011;17904;47.420;9.310;2022-11-20T03:28:51;6.45;;;4.70;;
31270;SDS011;17904;47.420;9.310;2022-11-20T03:31:23;6.97;;;4.25;;
31270;SDS011;17904;47.420;9.310;2022-11-20T03:33:52;7.15;;;5.93;;
31270;SDS011;17904;47.420;9.310;2022-11-20T03:36:19;6.30;;;4.93;;
31270;SDS011;17904;47.420;9.310;2022-11-20T03:38:47;4.47;;;3.95;;
31270;SDS011;17904;47.420;9.310;2022-11-20T03:41:16;6.55;;;4.50;;
31270;SDS011;17904;47.420;9.310;2022-11-20T03:43:51;9.80;;;5.03;;
31270;SDS011;17904;47.420;9.310;2022-11-20T03:46:20;7.47;;;5.43;;
31270;SDS011;17904;47.420;9.310;2022-11-20T03:48:47;6.97;;;4.60;;
31270;SDS011;17904;47.420;9.310;2022-11-20T03:51:24;10.02;;;4.93;;
31270;SDS011;17904;47.420;9.310;2022-11-20T03:53:56;8.45;;;4.60;;
31270;SDS011;17904;47.420;9.310;2022-11-20T03:56:26;7.30;;;5.30;;
31270;SDS011;17904;47.420;9.310;2022-11-20T03:58:54;8.55;;;4.47;;
31270;SDS011;17904;47.420;9.310;2022-11-20T04:01:26;6.03;;;4.50;;
31270;SDS011;17904;47.420;9.310;2022-11-20T04:03:55;8.00;;;5.10;;
31270;SDS011;17904;47.420;9.310;2022-11-20T04:06:24;8.63;;;6.07;;
31270;SDS011;17904;47.420;9.310;2022-11-20T04:09:01;7.07;;;5.00;;
31270;SDS011;17904;47.420;9.310;2022-11-20T04:11:30;9.35;;;4.78;;
31270;SDS011;17904;47.420;9.310;2022-11-20T04:13:59;7.55;;;5.35;;
31270;SDS011;17904;47.420;9.310;2022-11-20T04:16:29;7.32;;;4.78;;
31270;SDS011;17904;47.420;9.310;2022-11-20T04:18:58;7.18;;;5.20;;
31270;SDS011;17904;47.420;9.310;2022-11-20T04:21:26;9.32;;;5.03;;
31270;SDS011;17904;47.420;9.310;2022-11-20T04:23:54;7.32;;;5.13;;
31270;SDS011;17904;47.420;9.310;2022-11-20T04:26:22;9.23;;;4.90;;
31270;SDS011;17904;47.420;9.310;2022-11-20T04:28:50;8.57;;;5.28;;
31270;SDS011;17904;47.420;9.310;2022-11-20T04:31:18;6.15;;;5.03;;
31270;SDS011;17904;47.420;9.310;2022-11-20T04:33:47;8.60;;;4.90;;
31270;SDS011;17904;47.420;9.310;2022-11-20T04:36:18;10.32;;;5.07;;
31270;SDS011;17904;47.420;9.310;2022-11-20T04:38:59;8.18;;;5.45;;
31270;SDS011;17904;47.420;9.310;2022-11-20T04:41:29;10.43;;;5.05;;
31270;SDS011;17904;47.420;9.310;2022-11-20T04:43:59;8.27;;;5.00;;
31270;SDS011;17904;47.420;9.310;2022-11-20T04:46:30;7.60;;;5.38;;
31270;SDS011;17904;47.420;9.310;2022-11-20T04:48:58;7.53;;;5.38;;
31270;SDS011;17904;47.420;9.310;2022-11-20T04:51:25;7.75;;;5.53;;
31270;SDS011;17904;47.420;9.310;2022-11-20T04:53:53;8.73;;;6.00;;
31270;SDS011;17904;47.420;9.310;2022-11-20T04:56:19;6.15;;;4.38;;
31270;SDS011;17904;47.420;9.310;2022-11-20T04:58:46;10.07;;;5.65;;
31270;SDS011;17904;47.420;9.310;2022-11-20T05:03:45;6.57;;;4.03;;
31270;SDS011;17904;47.420;9.310;2022-11-20T05:06:13;5.95;;;4.75;;
31270;SDS011;17904;47.420;9.310;2022-11-20T05:08:41;5.97;;;4.68;;
31270;SDS011;17904;47.420;9.310;2022-11-20T05:11:18;7.03;;;4.55;;
31270;SDS011;17904;47.420;9.310;2022-11-20T05:13:47;10.25;;;5.68;;
31270;SDS011;17904;47.420;9.310;2022-11-20T05:16:22;5.65;;;4.63;;
31270;SDS011;17904;47.420;9.310;2022-11-20T05:18:51;5.72;;;4.95;;
31270;SDS011;17904;47.420;9.310;2022-11-20T05:21:18;8.07;;;5.68;;
31270;SDS011;17904;47.420;9.310;2022-11-20T05:26:14;7.55;;;5.32;;
31270;SDS011;17904;47.420;9.310;2022-11-20T05:28:42;8.65;;;5.65;;
31270;SDS011;17904;47.420;9.310;2022-11-20T05:31:10;5.90;;;4.10;;
31270;SDS011;17904;47.420;9.310;2022-11-20T05:33:42;6.65;;;5.05;;
31270;SDS011;17904;47.420;9.310;2022-11-20T05:36:11;8.77;;;4.65;;
31270;SDS011;17904;47.420;9.310;2022-11-20T05:38:39;7.47;;;4.70;;
31270;SDS011;17904;47.420;9.310;2022-11-20T05:41:11;6.18;;;4.63;;
31270;SDS011;17904;47.420;9.310;2022-11-20T05:43:43;5.25;;;4.57;;
31270;SDS011;17904;47.420;9.310;2022-11-20T05:46:12;5.55;;;4.40;;
31270;SDS011;17904;47.420;9.310;2022-11-20T05:48:41;9.02;;;4.80;;
31270;SDS011;17904;47.420;9.310;2022-11-20T05:51:09;5.68;;;4.82;;
31270;SDS011;17904;47.420;9.310;2022-11-20T05:53:37;12.40;;;6.10;;
31270;SDS011;17904;47.420;9.310;2022-11-20T05:56:13;11.40;;;6.65;;
31270;SDS011;17904;47.420;9.310;2022-11-20T05:58:41;11.18;;;5.40;;
31270;SDS011;17904;47.420;9.310;2022-11-20T06:01:09;8.75;;;5.50;;
31270;SDS011;17904;47.420;9.310;2022-11-20T06:03:39;7.75;;;5.53;;
31270;SDS011;17904;47.420;9.310;2022-11-20T06:06:06;15.10;;;6.30;;
31270;SDS011;17904;47.420;9.310;2022-11-20T06:11:04;9.68;;;5.93;;
31270;SDS011;17904;47.420;9.310;2022-11-20T06:13:35;15.00;;;5.03;;
31270;SDS011;17904;47.420;9.310;2022-11-20T06:16:07;11.10;;;4.88;;
31270;SDS011;17904;47.420;9.310;2022-11-20T06:18:35;6.15;;;4.93;;
31270;SDS011;17904;47.420;9.310;2022-11-20T06:21:12;12.52;;;5.53;;
31270;SDS011;17904;47.420;9.310;2022-11-20T06:23:40;7.55;;;4.65;;
31270;SDS011;17904;47.420;9.310;2022-11-20T06:26:08;4.80;;;3.97;;
31270;SDS011;17904;47.420;9.310;2022-11-20T06:28:37;4.75;;;4.25;;
31270;SDS011;17904;47.420;9.310;2022-11-20T06:31:04;5.28;;;4.25;;
31270;SDS011;17904;47.420;9.310;2022-11-20T06:33:31;6.63;;;4.60;;
31270;SDS011;17904;47.420;9.310;2022-11-20T06:35:59;8.45;;;3.97;;
31270;SDS011;17904;47.420;9.310;2022-11-20T06:38:32;9.73;;;3.90;;
31270;SDS011;17904;47.420;9.310;2022-11-20T06:43:25;6.28;;;4.40;;
31270;SDS011;17904;47.420;9.310;2022-11-20T06:45:55;6.22;;;4.38;;
31270;SDS011;17904;47.420;9.310;2022-11-20T06:48:23;4.55;;;3.95;;
31270;SDS011;17904;47.420;9.310;2022-11-20T06:50:50;6.80;;;4.72;;
31270;SDS011;17904;47.420;9.310;2022-11-20T06:53:17;5.57;;;4.13;;
31270;SDS011;17904;47.420;9.310;2022-11-20T06:58:12;4.82;;;4.32;;
31270;SDS011;17904;47.420;9.310;2022-11-20T07:00:40;5.72;;;4.40;;
31270;SDS011;17904;47.420;9.310;2022-11-20T07:03:08;5.47;;;4.32;;
31270;SDS011;17904;47.420;9.310;2022-11-20T07:05:36;4.47;;;3.85;;
31270;SDS011;17904;47.420;9.310;2022-11-20T07:08:04;5.78;;;4.50;;
31270;SDS011;17904;47.420;9.310;2022-11-20T07:10:31;6.40;;;4.50;;
31270;SDS011;17904;47.420;9.310;2022-11-20T07:12:58;10.32;;;4.53;;
31270;SDS011;17904;47.420;9.310;2022-11-20T07:15:25;5.82;;;4.45;;
31270;SDS011;17904;47.420;9.310;2022-11-20T07:17:52;4.82;;;3.92;;
31270;SDS011;17904;47.420;9.310;2022-11-20T07:22:45;4.97;;;4.38;;
31270;SDS011;17904;47.420;9.310;2022-11-20T07:25:12;6.80;;;4.53;;
31270;SDS011;17904;47.420;9.310;2022-11-20T07:27:39;7.47;;;4.63;;
31270;SDS011;17904;47.420;9.310;2022-11-20T07:30:06;5.80;;;4.13;;
31270;SDS011;17904;47.420;9.310;2022-11-20T07:32:33;8.93;;;4.95;;
31270;SDS011;17904;47.420;9.310;2022-11-20T07:37:26;7.30;;;5.45;;
31270;SDS011;17904;47.420;9.310;2022-11-20T07:39:53;9.25;;;4.75;;
31270;SDS011;17904;47.420;9.310;2022-11-20T07:42:19;5.53;;;4.72;;
31270;SDS011;17904;47.420;9.310;2022-11-20T07:44:49;5.40;;;4.70;;
31270;SDS011;17904;47.420;9.310;2022-11-20T07:47:16;6.35;;;4.80;;
31270;SDS011;17904;47.420;9.310;2022-11-20T07:49:44;9.77;;;5.05;;
31270;SDS011;17904;47.420;9.310;2022-11-20T07:52:10;6.72;;;4.60;;
31270;SDS011;17904;47.420;9.310;2022-11-20T07:54:37;5.47;;;4.70;;
31270;SDS011;17904;47.420;9.310;2022-11-20T07:59:30;8.70;;;4.72;;
31270;SDS011;17904;47.420;9.310;2022-11-20T08:04:24;8.13;;;5.30;;
31270;SDS011;17904;47.420;9.310;2022-11-20T08:09:20;9.50;;;4.80;;
31270;SDS011;17904;47.420;9.310;2022-11-20T08:11:47;6.60;;;3.60;;
31270;SDS011;17904;47.420;9.310;2022-11-20T08:14:33;5.93;;;3.78;;
31270;SDS011;17904;47.420;9.310;2022-11-20T08:16:59;8.38;;;4.35;;
31270;SDS011;17904;47.420;9.310;2022-11-20T08:21:53;5.90;;;3.60;;
31270;SDS011;17904;47.420;9.310;2022-11-20T08:24:21;4.93;;;3.10;;
31270;SDS011;17904;47.420;9.310;2022-11-20T08:26:47;4.88;;;3.25;;
31270;SDS011;17904;47.420;9.310;2022-11-20T08:29:14;4.53;;;2.80;;
31270;SDS011;17904;47.420;9.310;2022-11-20T08:31:41;5.50;;;3.33;;
31270;SDS011;17904;47.420;9.310;2022-11-20T08:36:36;3.97;;;2.85;;
31270;SDS011;17904;47.420;9.310;2022-11-20T08:39:03;3.10;;;2.75;;
31270;SDS011;17904;47.420;9.310;2022-11-20T08:41:30;4.03;;;2.50;;
31270;SDS011;17904;47.420;9.310;2022-11-20T08:44:00;4.63;;;2.30;;
31270;SDS011;17904;47.420;9.310;2022-11-20T08:46:31;8.02;;;2.72;;
31270;SDS011;17904;47.420;9.310;2022-11-20T08:49:04;3.85;;;2.53;;
31270;SDS011;17904;47.420;9.310;2022-11-20T08:51:32;4.80;;;1.98;;
31270;SDS011;17904;47.420;9.310;2022-11-20T08:53:59;2.33;;;2.13;;
31270;SDS011;17904;47.420;9.310;2022-11-20T08:56:26;2.55;;;1.95;;
31270;SDS011;17904;47.420;9.310;2022-11-20T09:01:39;2.08;;;1.77;;
31270;SDS011;17904;47.420;9.310;2022-11-20T09:04:06;4.30;;;1.88;;
31270;SDS011;17904;47.420;9.310;2022-11-20T09:06:33;5.13;;;2.35;;
31270;SDS011;17904;47.420;9.310;2022-11-20T09:09:00;5.10;;;2.03;;
31270;SDS011;17904;47.420;9.310;2022-11-20T09:11:32;3.20;;;1.83;;
31270;SDS011;17904;47.420;9.310;2022-11-20T09:13:58;3.00;;;1.77;;
31270;SDS011;17904;47.420;9.310;2022-11-20T09:16:26;4.13;;;1.70;;
31270;SDS011;17904;47.420;9.310;2022-11-20T09:18:52;4.47;;;1.50;;
31270;SDS011;17904;47.420;9.310;2022-11-20T09:21:39;2.63;;;1.55;;
31270;SDS011;17904;47.420;9.310;2022-11-20T09:24:06;2.10;;;1.35;;
31270;SDS011;17904;47.420;9.310;2022-11-20T09:26:33;2.08;;;1.77;;
31270;SDS011;17904;47.420;9.310;2022-11-20T09:28:59;5.93;;;1.67;;
31270;SDS011;17904;47.420;9.310;2022-11-20T09:33:53;2.60;;;1.60;;
31270;SDS011;17904;47.420;9.310;2022-11-20T09:36:19;1.30;;;1.00;;
31270;SDS011;17904;47.420;9.310;2022-11-20T09:38:46;1.73;;;1.30;;
31270;SDS011;17904;47.420;9.310;2022-11-20T09:44:07;1.10;;;1.00;;
31270;SDS011;17904;47.420;9.310;2022-11-20T09:47:08;2.17;;;1.25;;
31270;SDS011;17904;47.420;9.310;2022-11-20T09:52:38;1.40;;;0.98;;
31270;SDS011;17904;47.420;9.310;2022-11-20T09:55:17;2.00;;;0.85;;
31270;SDS011;17904;47.420;9.310;2022-11-20T09:57:45;1.70;;;0.93;;
31270;SDS011;17904;47.420;9.310;2022-11-20T10:00:14;1.77;;;1.17;;
31270;SDS011;17904;47.420;9.310;2022-11-20T10:02:43;1.20;;;1.08;;
31270;SDS011;17904;47.420;9.310;2022-11-20T10:21:23;2.30;;;1.10;;
31270;SDS011;17904;47.420;9.310;2022-11-20T10:27:06;6.40;;;1.63;;
31270;SDS011;17904;47.420;9.310;2022-11-20T10:30:11;2.60;;;1.52;;
31270;SDS011;17904;47.420;9.310;2022-11-20T10:32:43;3.00;;;1.40;;
31270;SDS011;17904;47.420;9.310;2022-11-20T10:35:25;3.42;;;1.17;;
31270;SDS011;17904;47.420;9.310;2022-11-20T10:37:58;3.13;;;1.40;;
31270;SDS011;17904;47.420;9.310;2022-11-20T10:40:44;1.13;;;1.02;;
31270;SDS011;17904;47.420;9.310;2022-11-20T10:43:25;1.88;;;1.73;;
31270;SDS011;17904;47.420;9.310;2022-11-20T10:46:00;1.00;;;1.00;;
31270;SDS011;17904;47.420;9.310;2022-11-20T10:48:31;1.83;;;1.30;;
31270;SDS011;17904;47.420;9.310;2022-11-20T10:51:12;1.83;;;1.27;;
31270;SDS011;17904;47.420;9.310;2022-11-20T10:59:35;4.03;;;1.20;;
31270;SDS011;17904;47.420;9.310;2022-11-20T11:01:59;4.28;;;1.25;;
31270;SDS011;17904;47.420;9.310;2022-11-20T11:04:30;3.30;;;1.20;;
31270;SDS011;17904;47.420;9.310;2022-11-20T11:07:20;1.27;;;1.08;;
31270;SDS011;17904;47.420;9.310;2022-11-20T11:12:21;1.33;;;0.98;;
31270;SDS011;17904;47.420;9.310;2022-11-20T11:14:53;1.88;;;1.05;;
31270;SDS011;17904;47.420;9.310;2022-11-20T11:17:31;1.85;;;1.42;;
31270;SDS011;17904;47.420;9.310;2022-11-20T11:20:04;0.93;;;0.93;;
31270;SDS011;17904;47.420;9.310;2022-11-20T11:22:49;1.27;;;0.90;;
31270;SDS011;17904;47.420;9.310;2022-11-20T11:25:19;3.38;;;1.08;;
31270;SDS011;17904;47.420;9.310;2022-11-20T11:27:49;1.00;;;0.75;;
31270;SDS011;17904;47.420;9.310;2022-11-20T11:30:18;1.27;;;0.90;;
31270;SDS011;17904;47.420;9.310;2022-11-20T11:32:46;1.90;;;0.80;;
31270;SDS011;17904;47.420;9.310;2022-11-20T11:35:23;1.88;;;1.10;;
31270;SDS011;17904;47.420;9.310;2022-11-20T11:37:52;0.70;;;0.70;;
31270;SDS011;17904;47.420;9.310;2022-11-20T11:40:34;1.15;;;1.02;;
31270;SDS011;17904;47.420;9.310;2022-11-20T11:43:04;1.58;;;1.10;;
31270;SDS011;17904;47.420;9.310;2022-11-20T11:45:54;1.70;;;1.13;;
31270;SDS011;17904;47.420;9.310;2022-11-20T11:48:22;2.58;;;1.00;;
31270;SDS011;17904;47.420;9.310;2022-11-20T11:53:18;2.35;;;1.30;;
31270;SDS011;17904;47.420;9.310;2022-11-20T11:55:56;1.13;;;1.00;;
31270;SDS011;17904;47.420;9.310;2022-11-20T11:58:50;3.50;;;1.02;;
31270;SDS011;17904;47.420;9.310;2022-11-20T12:01:38;3.50;;;1.10;;
31270;SDS011;17904;47.420;9.310;2022-11-20T12:07:20;0.95;;;0.95;;
31270;SDS011;17904;47.420;9.310;2022-11-20T12:10:22;4.32;;;1.23;;
31270;SDS011;17904;47.420;9.310;2022-11-20T12:13:02;1.77;;;1.00;;
31270;SDS011;17904;47.420;9.310;2022-11-20T12:15:41;2.03;;;1.10;;
31270;SDS011;17904;47.420;9.310;2022-11-20T12:18:17;1.52;;;0.90;;
31270;SDS011;17904;47.420;9.310;2022-11-20T12:20:48;1.30;;;0.95;;
31270;SDS011;17904;47.420;9.310;2022-11-20T12:23:46;0.80;;;0.80;;
31270;SDS011;17904;47.420;9.310;2022-11-20T12:26:35;3.13;;;0.85;;
31270;SDS011;17904;47.420;9.310;2022-11-20T12:31:46;1.55;;;1.38;;
31270;SDS011;17904;47.420;9.310;2022-11-20T12:34:26;1.25;;;0.80;;
31270;SDS011;17904;47.420;9.310;2022-11-20T12:37:22;1.00;;;1.00;;
31270;SDS011;17904;47.420;9.310;2022-11-20T12:39:54;1.58;;;1.23;;
31270;SDS011;17904;47.420;9.310;2022-11-20T12:42:37;3.13;;;1.13;;
31270;SDS011;17904;47.420;9.310;2022-11-20T12:48:36;1.70;;;1.40;;
31270;SDS011;17904;47.420;9.310;2022-11-20T12:54:04;1.10;;;1.02;;
31270;SDS011;17904;47.420;9.310;2022-11-20T13:07:38;1.48;;;1.25;;
31270;SDS011;17904;47.420;9.310;2022-11-20T13:10:54;1.60;;;1.50;;
31270;SDS011;17904;47.420;9.310;2022-11-20T13:13:00;2.10;;;0.90;;
31270;SDS011;17904;47.420;9.310;2022-11-20T13:15:58;0.85;;;0.80;;
31270;SDS011;17904;47.420;9.310;2022-11-20T13:18:39;0.80;;;0.80;;
31270;SDS011;17904;47.420;9.310;2022-11-20T13:21:21;2.15;;;1.17;;
31270;SDS011;17904;47.420;9.310;2022-11-20T13:24:35;3.05;;;1.00;;
31270;SDS011;17904;47.420;9.310;2022-11-20T13:27:00;3.17;;;0.80;;
31270;SDS011;17904;47.420;9.310;2022-11-20T13:29:44;2.47;;;1.13;;
31270;SDS011;17904;47.420;9.310;2022-11-20T13:32:18;1.80;;;0.80;;
31270;SDS011;17904;47.420;9.310;2022-11-20T13:34:56;0.75;;;0.75;;
31270;SDS011;17904;47.420;9.310;2022-11-20T13:37:27;2.70;;;1.00;;
31270;SDS011;17904;47.420;9.310;2022-11-20T13:42:38;3.65;;;1.20;;
31270;SDS011;17904;47.420;9.310;2022-11-20T13:45:11;2.45;;;0.93;;
31270;SDS011;17904;47.420;9.310;2022-11-20T13:47:51;1.58;;;0.80;;
31270;SDS011;17904;47.420;9.310;2022-11-20T13:50:19;1.15;;;0.80;;
31270;SDS011;17904;47.420;9.310;2022-11-20T13:53:26;1.98;;;1.20;;
31270;SDS011;17904;47.420;9.310;2022-11-20T14:01:30;3.20;;;0.98;;
31270;SDS011;17904;47.420;9.310;2022-11-20T14:03:58;1.17;;;0.73;;
31270;SDS011;17904;47.420;9.310;2022-11-20T14:06:34;1.77;;;0.77;;
31270;SDS011;17904;47.420;9.310;2022-11-20T14:09:11;1.42;;;1.00;;
31270;SDS011;17904;47.420;9.310;2022-11-20T14:11:45;2.08;;;0.85;;
31270;SDS011;17904;47.420;9.310;2022-11-20T14:14:13;2.30;;;1.15;;
31270;SDS011;17904;47.420;9.310;2022-11-20T14:16:45;2.47;;;1.00;;
31270;SDS011;17904;47.420;9.310;2022-11-20T14:21:49;1.38;;;0.95;;
31270;SDS011;17904;47.420;9.310;2022-11-20T14:24:21;1.50;;;0.80;;
31270;SDS011;17904;47.420;9.310;2022-11-20T14:26:49;1.88;;;0.95;;
31270;SDS011;17904;47.420;9.310;2022-11-20T14:29:18;21.58;;;9.27;;
31270;SDS011;17904;47.420;9.310;2022-11-20T14:31:47;7.32;;;3.30;;
31270;SDS011;17904;47.420;9.310;2022-11-20T14:34:27;1.52;;;0.90;;
31270;SDS011;17904;47.420;9.310;2022-11-20T14:36:59;1.15;;;1.05;;
31270;SDS011;17904;47.420;9.310;2022-11-20T14:39:31;2.92;;;1.13;;
31270;SDS011;17904;47.420;9.310;2022-11-20T14:42:00;1.73;;;1.08;;
31270;SDS011;17904;47.420;9.310;2022-11-20T14:46:56;1.35;;;1.20;;
31270;SDS011;17904;47.420;9.310;2022-11-20T14:49:24;1.63;;;1.27;;
31270;SDS011;17904;47.420;9.310;2022-11-20T14:52:01;1.48;;;1.20;;
31270;SDS011;17904;47.420;9.310;2022-11-20T14:54:43;3.53;;;1.00;;
31270;SDS011;17904;47.420;9.310;2022-11-20T14:57:31;0.95;;;0.82;;
31270;SDS011;17904;47.420;9.310;2022-11-20T15:02:41;1.15;;;0.90;;
31270;SDS011;17904;47.420;9.310;2022-11-20T15:05:09;1.80;;;0.85;;
31270;SDS011;17904;47.420;9.310;2022-11-20T15:10:12;1.05;;;0.98;;
31270;SDS011;17904;47.420;9.310;2022-11-20T15:12:48;8.07;;;3.40;;
31270;SDS011;17904;47.420;9.310;2022-11-20T15:15:17;1.52;;;1.38;;
31270;SDS011;17904;47.420;9.310;2022-11-20T15:17:47;1.25;;;0.95;;
31270;SDS011;17904;47.420;9.310;2022-11-20T15:20:14;1.58;;;1.40;;
31270;SDS011;17904;47.420;9.310;2022-11-20T15:22:42;1.20;;;1.10;;
31270;SDS011;17904;47.420;9.310;2022-11-20T15:25:16;6.45;;;1.48;;
31270;SDS011;17904;47.420;9.310;2022-11-20T15:27:44;4.60;;;1.38;;
31270;SDS011;17904;47.420;9.310;2022-11-20T15:30:13;1.55;;;1.33;;
31270;SDS011;17904;47.420;9.310;2022-11-20T15:32:43;3.67;;;1.60;;
31270;SDS011;17904;47.420;9.310;2022-11-20T15:35:11;3.58;;;1.90;;
31270;SDS011;17904;47.420;9.310;2022-11-20T15:37:38;3.03;;;1.63;;
31270;SDS011;17904;47.420;9.310;2022-11-20T15:40:05;1.83;;;1.40;;
31270;SDS011;17904;47.420;9.310;2022-11-20T15:42:33;1.40;;;1.30;;
31270;SDS011;17904;47.420;9.310;2022-11-20T15:45:01;1.70;;;1.48;;
31270;SDS011;17904;47.420;9.310;2022-11-20T15:47:29;2.65;;;1.58;;
31270;SDS011;17904;47.420;9.310;2022-11-20T15:49:58;2.97;;;1.65;;
31270;SDS011;17904;47.420;9.310;2022-11-20T15:55:01;4.72;;;2.35;;
31270;SDS011;17904;47.420;9.310;2022-11-20T15:57:36;3.08;;;1.90;;
31270;SDS011;17904;47.420;9.310;2022-11-20T16:00:03;3.15;;;1.88;;
31270;SDS011;17904;47.420;9.310;2022-11-20T16:02:35;3.63;;;2.38;;
31270;SDS011;17904;47.420;9.310;2022-11-20T16:05:02;7.60;;;1.85;;
31270;SDS011;17904;47.420;9.310;2022-11-20T16:07:29;4.40;;;2.10;;
31270;SDS011;17904;47.420;9.310;2022-11-20T16:12:23;4.05;;;1.83;;
31270;SDS011;17904;47.420;9.310;2022-11-20T16:15:08;4.78;;;1.83;;
31270;SDS011;17904;47.420;9.310;2022-11-20T16:17:54;3.45;;;1.85;;
31270;SDS011;17904;47.420;9.310;2022-11-20T16:22:47;3.97;;;2.20;;
31270;SDS011;17904;47.420;9.310;2022-11-20T16:25:14;5.00;;;1.80;;
31270;SDS011;17904;47.420;9.310;2022-11-20T16:30:07;26.90;;;4.55;;
31270;SDS011;17904;47.420;9.310;2022-11-20T16:32:35;5.20;;;1.83;;
31270;SDS011;17904;47.420;9.310;2022-11-20T16:37:29;4.55;;;2.13;;
31270;SDS011;17904;47.420;9.310;2022-11-20T16:42:22;4.80;;;1.95;;
31270;SDS011;17904;47.420;9.310;2022-11-20T16:47:16;3.35;;;1.60;;
31270;SDS011;17904;47.420;9.310;2022-11-20T16:49:42;6.05;;;2.45;;
31270;SDS011;17904;47.420;9.310;2022-11-20T16:54:36;4.50;;;1.80;;
31270;SDS011;17904;47.420;9.310;2022-11-20T16:57:02;3.50;;;1.98;;
31270;SDS011;17904;47.420;9.310;2022-11-20T17:01:56;8.18;;;4.20;;
31270;SDS011;17904;47.420;9.310;2022-11-20T17:06:50;13.45;;;3.55;;
31270;SDS011;17904;47.420;9.310;2022-11-20T17:09:16;3.03;;;2.00;;
31270;SDS011;17904;47.420;9.310;2022-11-20T17:11:43;2.30;;;1.77;;
31270;SDS011;17904;47.420;9.310;2022-11-20T17:14:10;3.15;;;1.63;;
31270;SDS011;17904;47.420;9.310;2022-11-20T17:16:37;2.78;;;1.48;;
31270;SDS011;17904;47.420;9.310;2022-11-20T17:19:04;3.47;;;1.90;;
31270;SDS011;17904;47.420;9.310;2022-11-20T17:21:31;5.75;;;2.00;;
31270;SDS011;17904;47.420;9.310;2022-11-20T17:24:01;2.45;;;1.67;;
31270;SDS011;17904;47.420;9.310;2022-11-20T17:26:31;5.13;;;1.85;;
31270;SDS011;17904;47.420;9.310;2022-11-20T17:28:59;2.53;;;1.65;;
31270;SDS011;17904;47.420;9.310;2022-11-20T17:31:29;3.85;;;1.88;;
31270;SDS011;17904;47.420;9.310;2022-11-20T17:33:57;5.78;;;1.48;;
31270;SDS011;17904;47.420;9.310;2022-11-20T17:36:27;1.55;;;1.40;;
31270;SDS011;17904;47.420;9.310;2022-11-20T17:38:55;2.35;;;1.52;;
31270;SDS011;17904;47.420;9.310;2022-11-20T17:41:23;3.97;;;1.73;;
31270;SDS011;17904;47.420;9.310;2022-11-20T17:43:55;2.33;;;1.70;;
31270;SDS011;17904;47.420;9.310;2022-11-20T17:46:24;5.20;;;2.10;;
31270;SDS011;17904;47.420;9.310;2022-11-20T17:48:53;2.65;;;1.60;;
31270;SDS011;17904;47.420;9.310;2022-11-20T17:51:22;3.22;;;1.52;;
31270;SDS011;17904;47.420;9.310;2022-11-20T17:53:52;3.95;;;2.50;;
31270;SDS011;17904;47.420;9.310;2022-11-20T17:56:21;2.33;;;1.80;;
31270;SDS011;17904;47.420;9.310;2022-11-20T17:59:07;4.22;;;2.13;;